Time;durP1;ratioP1;P1;durP2;ratioP2;P2;SDS_P1;SDS_P2;PMS_P1;PMS_P2;Temp;Humidity;BMP_temperature;BMP_pressure;BME280_temperature;BME280_humidity;BME280_pressure;Samples;Min_cycle;Max_cycle;Signal;HPM_P1;HPM_P2
2023/06/10 00:01:50;;;;;;;14.40;5.10;;;;;;;;;;5081531;28;20470;-81
2023/06/10 00:04:17;;;;;;;11.07;5.00;;;;;;;;;;5074370;28;20446;-81
2023/06/10 00:06:49;;;;;;;9.20;5.30;;;;;;;;;;5078793;28;20472;-81
2023/06/10 00:09:15;;;;;;;10.73;4.03;;;;;;;;;;5081775;28;20490;-81
2023/06/10 00:11:42;;;;;;;11.63;5.53;;;;;;;;;;5078636;28;20471;-81
2023/06/10 00:14:08;;;;;;;10.30;5.03;;;;;;;;;;5074634;28;20488;-81
2023/06/10 00:16:36;;;;;;;13.93;5.13;;;;;;;;;;5085449;28;20821;-81
2023/06/10 00:19:03;;;;;;;8.53;5.13;;;;;;;;;;5082268;28;20487;-81
2023/06/10 00:21:30;;;;;;;9.40;4.73;;;;;;;;;;5077367;28;20935;-81
2023/06/10 00:24:02;;;;;;;9.33;5.27;;;;;;;;;;5080601;28;20467;-81
2023/06/10 00:26:29;;;;;;;9.67;6.40;;;;;;;;;;5077677;28;20450;-80
2023/06/10 00:28:56;;;;;;;9.73;5.17;;;;;;;;;;5081711;28;20437;-80
2023/06/10 00:31:22;;;;;;;13.13;5.43;;;;;;;;;;5081798;28;20454;-81
2023/06/10 00:33:48;;;;;;;11.77;5.70;;;;;;;;;;5085345;28;20446;-81
2023/06/10 00:36:15;;;;;;;12.80;5.93;;;;;;;;;;5092906;28;20482;-81
2023/06/10 00:38:41;;;;;;;7.77;5.60;;;;;;;;;;5078627;28;20920;-81
2023/06/10 00:41:09;;;;;;;13.30;6.83;;;;;;;;;;5076683;28;20455;-81
2023/06/10 00:43:35;;;;;;;13.03;5.67;;;;;;;;;;5082232;28;20484;-81
2023/06/10 00:46:02;;;;;;;8.90;5.83;;;;;;;;;;5075068;28;20421;-81
2023/06/10 00:48:28;;;;;;;10.30;6.20;;;;;;;;;;5075471;28;20536;-81
2023/06/10 00:50:55;;;;;;;13.77;5.90;;;;;;;;;;5067993;28;20493;-81
2023/06/10 00:53:22;;;;;;;17.50;6.40;;;;;;;;;;5078411;28;20487;-81
2023/06/10 00:55:48;;;;;;;8.87;5.30;;;;;;;;;;5085962;28;20799;-81
2023/06/10 00:58:16;;;;;;;8.97;5.40;;;;;;;;;;5065759;28;20528;-81
2023/06/10 01:00:44;;;;;;;9.63;5.67;;;;;;;;;;5078005;28;20421;-81
2023/06/10 01:03:11;;;;;;;8.40;5.80;;;;;;;;;;5077477;28;20478;-81
2023/06/10 01:05:38;;;;;;;14.13;7.00;;;;;;;;;;5074748;28;20909;-81
2023/06/10 01:08:08;;;;;;;9.80;6.30;;;;;;;;;;5046985;28;20528;-80
2023/06/10 01:10:37;;;;;;;10.77;6.53;;;;;;;;;;5064514;28;20941;-81
2023/06/10 01:13:04;;;;;;;11.10;5.93;;;;;;;;;;5067931;28;20996;-81
2023/06/10 01:15:32;;;;;;;10.07;5.70;;;;;;;;;;5063425;28;20484;-80
2023/06/10 01:17:59;;;;;;;8.33;6.30;;;;;;;;;;5067074;28;20524;-80
2023/06/10 01:20:26;;;;;;;13.77;6.77;;;;;;;;;;5078241;28;20438;-81
2023/06/10 01:22:54;;;;;;;12.63;7.43;;;;;;;;;;5082013;28;20958;-81
2023/06/10 01:25:27;;;;;;;13.30;6.33;;;;;;;;;;5077845;28;20418;-81
2023/06/10 01:27:57;;;;;;;10.80;6.07;;;;;;;;;;5086672;28;20477;-79
2023/06/10 01:30:29;;;;;;;10.53;6.87;;;;;;;;;;5081090;28;20496;-80
2023/06/10 01:32:56;;;;;;;13.40;6.90;;;;;;;;;;5089944;28;20984;-82
2023/06/10 01:35:25;;;;;;;8.20;6.60;;;;;;;;;;5075653;28;20843;-80
2023/06/10 01:37:54;;;;;;;11.43;6.50;;;;;;;;;;5080733;28;20979;-81
2023/06/10 01:40:22;;;;;;;19.80;7.20;;;;;;;;;;5075443;28;20465;-80
2023/06/10 01:42:48;;;;;;;13.90;6.70;;;;;;;;;;5072644;28;20467;-79
2023/06/10 01:45:14;;;;;;;12.20;6.73;;;;;;;;;;5074832;28;20483;-80
2023/06/10 01:47:41;;;;;;;12.90;7.57;;;;;;;;;;5074521;28;20560;-80
2023/06/10 01:50:07;;;;;;;11.57;5.83;;;;;;;;;;5073982;28;20446;-80
2023/06/10 01:52:34;;;;;;;13.00;8.33;;;;;;;;;;5081621;28;20996;-79
2023/06/10 01:55:00;;;;;;;15.83;7.40;;;;;;;;;;5083361;28;20564;-80
2023/06/10 01:57:28;;;;;;;16.33;8.10;;;;;;;;;;5068609;28;20479;-80
2023/06/10 01:59:54;;;;;;;11.07;6.67;;;;;;;;;;5080419;28;20815;-80
2023/06/10 02:02:21;;;;;;;13.13;8.63;;;;;;;;;;5091470;28;20470;-79
2023/06/10 02:04:48;;;;;;;13.33;6.83;;;;;;;;;;5075992;28;20462;-79
2023/06/10 02:07:14;;;;;;;14.30;7.57;;;;;;;;;;5072628;28;20478;-80
2023/06/10 02:09:40;;;;;;;19.07;7.77;;;;;;;;;;5079891;28;20446;-80
2023/06/10 02:12:07;;;;;;;11.27;6.63;;;;;;;;;;5079111;28;20474;-80
2023/06/10 02:14:35;;;;;;;13.43;7.03;;;;;;;;;;5077992;28;20469;-80
2023/06/10 02:17:01;;;;;;;10.00;6.90;;;;;;;;;;5072952;28;20467;-81
2023/06/10 02:19:28;;;;;;;13.07;7.33;;;;;;;;;;5084341;28;20472;-81
2023/06/10 02:21:55;;;;;;;11.60;7.07;;;;;;;;;;5086355;28;20537;-79
2023/06/10 02:24:21;;;;;;;12.80;8.80;;;;;;;;;;5084446;28;20447;-81
2023/06/10 02:26:47;;;;;;;16.30;8.50;;;;;;;;;;5072765;28;20461;-80
2023/06/10 02:29:14;;;;;;;10.97;7.77;;;;;;;;;;5077452;28;20994;-81
2023/06/10 02:31:43;;;;;;;12.40;6.70;;;;;;;;;;5077483;28;20464;-81
2023/06/10 02:34:10;;;;;;;13.30;7.70;;;;;;;;;;5082499;28;20438;-81
2023/06/10 02:36:36;;;;;;;8.30;6.43;;;;;;;;;;5072286;28;20474;-80
2023/06/10 02:39:04;;;;;;;15.97;8.77;;;;;;;;;;5075990;28;20524;-81
2023/06/10 02:41:30;;;;;;;12.17;8.80;;;;;;;;;;5082142;28;20455;-82
2023/06/10 02:43:56;;;;;;;16.53;8.63;;;;;;;;;;5075922;28;20458;-79
2023/06/10 02:46:23;;;;;;;12.40;8.90;;;;;;;;;;5078021;28;20456;-80
2023/06/10 02:48:51;;;;;;;14.60;7.90;;;;;;;;;;5074553;28;20479;-80
2023/06/10 02:51:18;;;;;;;12.70;8.50;;;;;;;;;;5077549;28;20489;-79
2023/06/10 02:53:44;;;;;;;19.07;9.07;;;;;;;;;;5089235;28;20474;-81
2023/06/10 02:56:12;;;;;;;10.90;7.50;;;;;;;;;;5081985;28;20524;-81
2023/06/10 02:58:38;;;;;;;19.13;8.93;;;;;;;;;;5070888;28;20921;-81
2023/06/10 03:01:04;;;;;;;12.43;7.60;;;;;;;;;;5084570;28;20462;-81
2023/06/10 03:03:33;;;;;;;11.70;6.83;;;;;;;;;;5075569;28;20470;-81
2023/06/10 03:06:01;;;;;;;10.67;7.77;;;;;;;;;;5089390;28;20511;-81
2023/06/10 03:08:27;;;;;;;18.37;10.03;;;;;;;;;;5080367;28;20474;-81
2023/06/10 03:10:54;;;;;;;14.37;8.70;;;;;;;;;;5078420;28;20459;-81
2023/06/10 03:13:20;;;;;;;8.93;7.33;;;;;;;;;;5086131;28;20466;-81
2023/06/10 03:15:47;;;;;;;15.97;8.13;;;;;;;;;;5085784;28;20493;-81
2023/06/10 03:18:13;;;;;;;12.63;9.10;;;;;;;;;;5083893;28;20475;-81
2023/06/10 03:20:40;;;;;;;12.23;7.90;;;;;;;;;;5077405;28;20458;-81
2023/06/10 03:23:07;;;;;;;22.00;9.33;;;;;;;;;;5080436;28;20482;-81
2023/06/10 03:25:34;;;;;;;14.17;8.83;;;;;;;;;;5088876;28;20454;-81
2023/06/10 03:28:00;;;;;;;10.30;7.70;;;;;;;;;;5074864;28;20578;-80
2023/06/10 03:30:27;;;;;;;13.73;7.23;;;;;;;;;;5081581;28;20481;-81
2023/06/10 03:32:54;;;;;;;14.90;8.60;;;;;;;;;;5074867;28;20467;-81
2023/06/10 03:35:21;;;;;;;13.90;8.33;;;;;;;;;;5081969;28;20454;-81
2023/06/10 03:37:47;;;;;;;7.60;6.80;;;;;;;;;;5081919;28;20477;-81
2023/06/10 03:40:16;;;;;;;13.77;7.43;;;;;;;;;;5081609;28;20462;-81
2023/06/10 03:42:43;;;;;;;12.00;7.33;;;;;;;;;;5082309;28;20479;-81
2023/06/10 03:45:10;;;;;;;8.90;6.90;;;;;;;;;;5083138;28;20462;-81
2023/06/10 03:47:37;;;;;;;12.77;7.83;;;;;;;;;;5080500;28;20832;-81
2023/06/10 03:50:04;;;;;;;13.50;8.50;;;;;;;;;;5083537;28;20943;-81
2023/06/10 03:52:31;;;;;;;12.53;6.93;;;;;;;;;;5080838;28;20467;-80
2023/06/10 03:54:57;;;;;;;13.67;9.80;;;;;;;;;;5084306;28;20455;-81
2023/06/10 03:57:25;;;;;;;10.43;7.97;;;;;;;;;;5079702;28;21004;-79
2023/06/10 03:59:52;;;;;;;13.60;8.20;;;;;;;;;;5084132;28;20462;-80
2023/06/10 04:02:19;;;;;;;30.33;9.20;;;;;;;;;;5077216;28;20495;-80
2023/06/10 04:04:46;;;;;;;10.40;8.00;;;;;;;;;;5083984;28;20441;-80
2023/06/10 04:07:13;;;;;;;12.97;7.63;;;;;;;;;;5078578;28;21017;-81
2023/06/10 04:09:40;;;;;;;18.63;7.67;;;;;;;;;;5069099;28;20459;-81
2023/06/10 04:12:08;;;;;;;15.67;8.70;;;;;;;;;;5082244;28;20465;-81
2023/06/10 04:14:37;;;;;;;17.30;8.37;;;;;;;;;;5086930;28;20487;-81
2023/06/10 04:17:06;;;;;;;11.03;7.33;;;;;;;;;;5071749;28;20474;-79
2023/06/10 04:19:32;;;;;;;11.10;6.53;;;;;;;;;;5073813;28;20542;-79
2023/06/10 04:21:59;;;;;;;11.07;7.30;;;;;;;;;;5084732;28;20492;-79
2023/06/10 04:24:26;;;;;;;14.23;8.27;;;;;;;;;;5061343;28;20451;-79
2023/06/10 04:26:52;;;;;;;11.00;6.17;;;;;;;;;;5066613;28;20476;-79
2023/06/10 04:29:19;;;;;;;13.50;7.13;;;;;;;;;;5073835;28;20489;-82
2023/06/10 04:31:46;;;;;;;10.80;6.70;;;;;;;;;;5075889;28;20471;-81
2023/06/10 04:34:13;;;;;;;11.07;6.50;;;;;;;;;;5081386;28;20447;-81
2023/06/10 04:36:39;;;;;;;9.20;6.60;;;;;;;;;;5082974;28;20469;-81
2023/06/10 04:39:06;;;;;;;12.70;7.30;;;;;;;;;;5088750;28;20470;-81
2023/06/10 04:41:32;;;;;;;13.07;7.57;;;;;;;;;;5082528;28;20443;-81
2023/06/10 04:43:59;;;;;;;13.37;6.60;;;;;;;;;;5078487;28;20447;-80
2023/06/10 04:46:25;;;;;;;12.73;6.47;;;;;;;;;;5081243;28;20459;-81
2023/06/10 04:48:54;;;;;;;13.87;8.50;;;;;;;;;;5081516;28;20459;-80
2023/06/10 04:51:21;;;;;;;13.93;9.30;;;;;;;;;;5078432;28;20467;-81
2023/06/10 04:53:47;;;;;;;15.80;10.13;;;;;;;;;;5079082;28;20447;-81
2023/06/10 04:56:15;;;;;;;14.60;9.20;;;;;;;;;;5073306;28;20988;-81
2023/06/10 04:58:41;;;;;;;14.23;10.53;;;;;;;;;;5080361;28;20467;-80
2023/06/10 05:01:07;;;;;;;20.43;10.50;;;;;;;;;;5091480;28;20449;-80
2023/06/10 05:03:33;;;;;;;25.17;13.90;;;;;;;;;;5077098;28;20463;-81
2023/06/10 05:06:01;;;;;;;15.03;11.20;;;;;;;;;;5075907;28;20458;-81
2023/06/10 05:08:28;;;;;;;14.33;12.50;;;;;;;;;;5083688;28;20475;-80
2023/06/10 05:10:54;;;;;;;17.03;13.67;;;;;;;;;;5080545;28;20455;-81
2023/06/10 05:13:20;;;;;;;17.73;12.00;;;;;;;;;;5076073;28;20856;-81
2023/06/10 05:15:47;;;;;;;17.53;11.77;;;;;;;;;;5075257;28;20451;-80
2023/06/10 05:18:13;;;;;;;14.47;10.90;;;;;;;;;;5083536;28;20470;-80
2023/06/10 05:20:39;;;;;;;15.03;11.13;;;;;;;;;;5082363;28;20447;-80
2023/06/10 05:23:07;;;;;;;14.63;10.90;;;;;;;;;;5077880;28;20557;-82
2023/06/10 05:25:34;;;;;;;16.77;11.73;;;;;;;;;;5081939;28;20453;-80
2023/06/10 05:28:01;;;;;;;13.83;9.80;;;;;;;;;;5085362;28;20470;-81
2023/06/10 05:30:27;;;;;;;12.73;10.67;;;;;;;;;;5081302;28;20477;-81
2023/06/10 05:32:55;;;;;;;17.13;11.33;;;;;;;;;;5080852;28;21010;-81
2023/06/10 05:35:22;;;;;;;15.50;10.20;;;;;;;;;;5076060;28;20964;-80
2023/06/10 05:37:49;;;;;;;19.43;9.43;;;;;;;;;;5066732;28;20476;-81
2023/06/10 05:40:17;;;;;;;11.67;9.07;;;;;;;;;;5078526;28;20933;-81
2023/06/10 05:42:43;;;;;;;12.20;8.50;;;;;;;;;;5079896;28;20483;-80
2023/06/10 05:45:10;;;;;;;13.70;9.27;;;;;;;;;;5080052;28;20450;-81
2023/06/10 05:47:37;;;;;;;14.83;8.50;;;;;;;;;;5070400;28;20483;-81
2023/06/10 05:50:06;;;;;;;15.87;8.47;;;;;;;;;;5081276;28;20447;-81
2023/06/10 05:52:33;;;;;;;16.40;8.60;;;;;;;;;;5079889;28;20490;-80
2023/06/10 05:54:59;;;;;;;10.47;7.73;;;;;;;;;;5077374;28;20451;-80
2023/06/10 05:57:27;;;;;;;9.07;7.87;;;;;;;;;;5073069;28;20997;-81
2023/06/10 05:59:55;;;;;;;11.60;7.60;;;;;;;;;;5093632;28;20446;-81
2023/06/10 06:02:21;;;;;;;13.07;7.40;;;;;;;;;;5080957;28;20470;-80
2023/06/10 06:04:48;;;;;;;8.87;7.87;;;;;;;;;;5088487;28;20453;-81
2023/06/10 06:07:14;;;;;;;10.20;8.07;;;;;;;;;;5080907;28;20470;-81
2023/06/10 06:09:40;;;;;;;11.70;7.50;;;;;;;;;;5075941;28;20443;-80
2023/06/10 06:12:08;;;;;;;13.97;7.50;;;;;;;;;;5077636;28;20467;-81
2023/06/10 06:14:38;;;;;;;11.40;7.33;;;;;;;;;;5081275;28;20438;-80
2023/06/10 06:17:04;;;;;;;12.53;7.60;;;;;;;;;;5078502;28;20813;-80
2023/06/10 06:19:31;;;;;;;8.57;7.00;;;;;;;;;;5079627;28;20987;-81
2023/06/10 06:21:57;;;;;;;11.93;7.37;;;;;;;;;;5074309;28;20478;-80
2023/06/10 06:24:23;;;;;;;12.20;7.73;;;;;;;;;;5083046;28;20516;-81
2023/06/10 06:26:50;;;;;;;8.73;6.07;;;;;;;;;;5076398;28;20506;-81
2023/06/10 06:29:16;;;;;;;10.93;6.97;;;;;;;;;;5068086;28;20460;-80
2023/06/10 06:31:44;;;;;;;11.67;7.10;;;;;;;;;;5072009;28;20459;-80
2023/06/10 06:34:10;;;;;;;12.90;7.23;;;;;;;;;;5086737;28;20458;-80
2023/06/10 06:36:37;;;;;;;13.23;6.80;;;;;;;;;;5077914;28;20462;-82
2023/06/10 06:39:03;;;;;;;10.20;6.80;;;;;;;;;;5081310;28;20991;-82
2023/06/10 06:41:29;;;;;;;7.90;6.53;;;;;;;;;;5080915;28;20458;-82
2023/06/10 06:43:56;;;;;;;10.87;6.63;;;;;;;;;;5080687;28;20831;-81
2023/06/10 06:46:22;;;;;;;12.60;6.10;;;;;;;;;;5076850;28;20964;-81
2023/06/10 06:48:50;;;;;;;6.97;5.73;;;;;;;;;;5078899;28;20473;-81
2023/06/10 06:51:16;;;;;;;14.87;7.20;;;;;;;;;;5079330;28;20432;-82
2023/06/10 06:53:45;;;;;;;9.40;6.70;;;;;;;;;;5080605;28;20461;-80
2023/06/10 06:56:11;;;;;;;8.20;6.07;;;;;;;;;;5077035;28;20455;-80
2023/06/10 06:58:38;;;;;;;10.43;6.30;;;;;;;;;;5080073;28;20473;-81
2023/06/10 07:01:04;;;;;;;13.00;6.30;;;;;;;;;;5080330;28;20429;-81
2023/06/10 07:03:31;;;;;;;9.60;6.30;;;;;;;;;;5089469;28;20984;-81
2023/06/10 07:06:00;;;;;;;8.83;6.67;;;;;;;;;;5076499;28;20531;-81
2023/06/10 07:08:26;;;;;;;10.53;6.70;;;;;;;;;;5083952;28;20482;-81
2023/06/10 07:10:54;;;;;;;8.20;6.33;;;;;;;;;;5081316;28;20438;-81
2023/06/10 07:13:20;;;;;;;13.30;5.80;;;;;;;;;;5077503;28;20466;-81
2023/06/10 07:15:46;;;;;;;6.90;5.90;;;;;;;;;;5081920;28;20511;-81
2023/06/10 07:18:13;;;;;;;8.60;6.60;;;;;;;;;;5052951;28;21031;-81
2023/06/10 07:20:39;;;;;;;9.87;6.37;;;;;;;;;;5049885;28;20440;-81
2023/06/10 07:23:07;;;;;;;15.33;6.90;;;;;;;;;;5060664;28;20832;-82
2023/06/10 07:25:33;;;;;;;11.20;5.87;;;;;;;;;;5063473;28;20466;-79
2023/06/10 07:28:00;;;;;;;10.33;6.00;;;;;;;;;;5063435;28;20483;-81
2023/06/10 07:30:26;;;;;;;6.77;6.00;;;;;;;;;;5047828;28;20467;-80
2023/06/10 07:32:53;;;;;;;8.83;6.97;;;;;;;;;;5060247;28;20442;-82
2023/06/10 07:35:19;;;;;;;11.80;6.93;;;;;;;;;;5064054;28;20433;-79
2023/06/10 07:37:46;;;;;;;6.70;5.60;;;;;;;;;;5067956;28;20471;-81
2023/06/10 07:40:13;;;;;;;14.07;6.83;;;;;;;;;;5069055;28;20451;-81
2023/06/10 07:42:40;;;;;;;9.00;5.93;;;;;;;;;;5075398;28;20445;-81
2023/06/10 07:45:07;;;;;;;13.77;7.03;;;;;;;;;;5059260;28;20427;-81
2023/06/10 07:47:34;;;;;;;6.73;5.10;;;;;;;;;;5056953;28;20981;-81
2023/06/10 07:50:01;;;;;;;11.20;5.83;;;;;;;;;;5058793;28;21191;-81
2023/06/10 07:52:28;;;;;;;8.53;6.63;;;;;;;;;;5067684;28;20505;-81
2023/06/10 07:54:54;;;;;;;13.43;6.80;;;;;;;;;;5068204;28;20436;-81
2023/06/10 07:57:22;;;;;;;7.47;5.77;;;;;;;;;;5067501;28;20475;-81
2023/06/10 07:59:48;;;;;;;12.13;6.77;;;;;;;;;;5063521;28;20455;-81
2023/06/10 08:02:15;;;;;;;6.77;5.73;;;;;;;;;;5062380;28;20471;-81
2023/06/10 08:04:41;;;;;;;8.80;5.50;;;;;;;;;;5070279;28;20417;-81
2023/06/10 08:07:07;;;;;;;10.40;5.70;;;;;;;;;;5058633;28;20476;-81
2023/06/10 08:09:34;;;;;;;10.53;7.00;;;;;;;;;;5067354;28;20443;-81
2023/06/10 08:12:01;;;;;;;10.60;6.87;;;;;;;;;;5065498;28;20474;-81
2023/06/10 08:14:29;;;;;;;9.47;5.67;;;;;;;;;;5059932;28;20463;-81
2023/06/10 08:16:55;;;;;;;12.13;7.50;;;;;;;;;;5063959;28;20497;-81
2023/06/10 08:19:21;;;;;;;13.17;5.97;;;;;;;;;;5085197;28;20901;-81
2023/06/10 08:21:48;;;;;;;7.90;5.50;;;;;;;;;;5073006;28;20467;-81
2023/06/10 08:24:16;;;;;;;7.37;6.07;;;;;;;;;;5061082;28;20452;-82
2023/06/10 08:26:42;;;;;;;14.90;7.40;;;;;;;;;;5057604;28;20456;-80
2023/06/10 08:29:09;;;;;;;8.97;6.60;;;;;;;;;;5057783;28;20455;-79
2023/06/10 08:31:36;;;;;;;16.77;6.93;;;;;;;;;;5055123;28;20475;-82
2023/06/10 08:34:03;;;;;;;8.43;5.67;;;;;;;;;;5038332;28;20814;-80
2023/06/10 08:36:29;;;;;;;10.53;6.87;;;;;;;;;;5057152;28;20444;-80
2023/06/10 08:38:55;;;;;;;8.10;6.10;;;;;;;;;;5059455;28;20940;-80
2023/06/10 08:41:26;;;;;;;10.03;7.20;;;;;;;;;;5064946;28;20541;-81
2023/06/10 08:43:55;;;;;;;11.20;7.30;;;;;;;;;;5060790;28;20505;-80
2023/06/10 08:46:21;;;;;;;12.07;7.93;;;;;;;;;;5058501;28;20461;-80
2023/06/10 08:48:50;;;;;;;9.43;8.03;;;;;;;;;;5061016;28;20845;-80
2023/06/10 08:51:18;;;;;;;9.73;8.60;;;;;;;;;;5066890;28;20451;-79
2023/06/10 08:53:49;;;;;;;10.80;8.33;;;;;;;;;;5081980;28;20443;-80
2023/06/10 08:56:17;;;;;;;8.37;7.40;;;;;;;;;;5071631;28;20455;-80
2023/06/10 08:58:44;;;;;;;8.33;7.63;;;;;;;;;;5080671;28;20505;-80
2023/06/10 09:01:11;;;;;;;15.47;10.17;;;;;;;;;;5087036;28;20442;-80
2023/06/10 09:03:38;;;;;;;10.03;7.83;;;;;;;;;;5070331;28;20853;-80
2023/06/10 09:06:06;;;;;;;14.57;8.67;;;;;;;;;;5080230;28;20450;-80
2023/06/10 09:08:34;;;;;;;13.67;7.80;;;;;;;;;;5079296;28;20471;-83
2023/06/10 09:11:00;;;;;;;15.77;9.03;;;;;;;;;;5079987;28;20462;-81
2023/06/10 09:13:27;;;;;;;10.50;8.23;;;;;;;;;;5090419;28;20996;-80
2023/06/10 09:15:56;;;;;;;9.87;7.60;;;;;;;;;;5080755;28;20972;-82
2023/06/10 09:18:22;;;;;;;10.50;7.43;;;;;;;;;;5077771;28;21019;-81
2023/06/10 09:20:50;;;;;;;9.47;7.40;;;;;;;;;;5084073;28;20463;-81
2023/06/10 09:23:18;;;;;;;11.17;7.43;;;;;;;;;;5086346;28;20467;-81
2023/06/10 09:25:44;;;;;;;8.07;7.27;;;;;;;;;;5090251;28;20442;-81
2023/06/10 09:28:14;;;;;;;9.60;7.27;;;;;;;;;;5090487;28;20475;-82
2023/06/10 09:30:40;;;;;;;14.20;7.90;;;;;;;;;;5078498;28;20450;-81
2023/06/10 09:33:10;;;;;;;12.60;7.57;;;;;;;;;;5080170;28;20476;-81
2023/06/10 09:35:36;;;;;;;10.57;7.10;;;;;;;;;;5082493;28;20458;-81
2023/06/10 09:38:04;;;;;;;11.20;7.20;;;;;;;;;;5084419;28;20482;-81
2023/06/10 09:40:32;;;;;;;10.73;5.80;;;;;;;;;;5092746;28;20450;-83
2023/06/10 09:42:59;;;;;;;9.00;6.77;;;;;;;;;;5080688;28;20473;-82
2023/06/10 09:45:30;;;;;;;10.90;6.20;;;;;;;;;;5080615;28;20454;-82
2023/06/10 09:47:56;;;;;;;10.53;6.47;;;;;;;;;;5080652;28;20458;-82
2023/06/10 09:50:23;;;;;;;11.80;7.67;;;;;;;;;;5081261;28;20495;-82
2023/06/10 09:52:51;;;;;;;6.63;6.03;;;;;;;;;;5079854;28;20992;-80
2023/06/10 09:55:17;;;;;;;7.50;6.40;;;;;;;;;;5080799;28;20529;-81
2023/06/10 09:57:48;;;;;;;7.97;6.10;;;;;;;;;;5086959;28;20471;-82
2023/06/10 10:00:15;;;;;;;8.97;5.90;;;;;;;;;;5088126;28;20517;-81
2023/06/10 10:02:46;;;;;;;9.60;6.57;;;;;;;;;;5083597;28;20596;-82
2023/06/10 10:05:13;;;;;;;10.00;5.67;;;;;;;;;;5084889;28;20442;-82
2023/06/10 10:07:40;;;;;;;8.10;5.73;;;;;;;;;;5076520;28;20474;-83
2023/06/10 10:10:07;;;;;;;10.40;5.53;;;;;;;;;;5087207;28;20463;-81
2023/06/10 10:12:34;;;;;;;10.57;5.40;;;;;;;;;;5074216;28;20458;-81
2023/06/10 10:15:03;;;;;;;8.20;6.23;;;;;;;;;;5085549;28;20486;-80
2023/06/10 10:17:30;;;;;;;6.20;4.97;;;;;;;;;;5085960;28;20470;-80
2023/06/10 10:19:59;;;;;;;11.53;5.60;;;;;;;;;;5078027;28;20473;-81
2023/06/10 10:22:26;;;;;;;7.57;5.57;;;;;;;;;;5073536;28;20483;-79
2023/06/10 10:24:54;;;;;;;15.33;6.20;;;;;;;;;;5083081;28;20836;-83
2023/06/10 10:27:22;;;;;;;8.00;5.10;;;;;;;;;;5085529;28;20474;-79
2023/06/10 10:29:49;;;;;;;7.53;5.27;;;;;;;;;;5085953;28;20453;-79
2023/06/10 10:32:17;;;;;;;9.53;5.03;;;;;;;;;;5090366;28;20461;-79
2023/06/10 10:34:49;;;;;;;5.43;4.23;;;;;;;;;;5085825;28;20440;-81
2023/06/10 10:37:16;;;;;;;7.70;5.00;;;;;;;;;;5079493;28;20486;-79
2023/06/10 10:39:42;;;;;;;8.90;4.63;;;;;;;;;;5093207;28;20478;-80
2023/06/10 10:42:10;;;;;;;8.70;4.13;;;;;;;;;;5079024;28;20672;-80
2023/06/10 10:44:36;;;;;;;6.33;3.97;;;;;;;;;;5080455;28;20450;-80
2023/06/10 10:47:04;;;;;;;7.73;4.40;;;;;;;;;;5080527;28;20474;-80
2023/06/10 10:49:31;;;;;;;5.17;4.30;;;;;;;;;;5079500;28;20509;-82
2023/06/10 10:51:58;;;;;;;8.13;3.67;;;;;;;;;;5093539;28;20466;-79
2023/06/10 10:54:31;;;;;;;10.83;4.53;;;;;;;;;;5082903;28;20446;-83
2023/06/10 10:57:11;;;;;;;6.40;3.73;;;;;;;;;;5081253;28;20478;-82
2023/06/10 10:59:44;;;;;;;7.50;4.13;;;;;;;;;;5082639;28;20482;-83
2023/06/10 11:02:10;;;;;;;7.07;4.57;;;;;;;;;;5083970;28;20470;-81
2023/06/10 11:04:38;;;;;;;9.30;4.47;;;;;;;;;;5084208;28;20443;-83
2023/06/10 11:07:06;;;;;;;9.63;4.00;;;;;;;;;;5081453;28;20474;-83
2023/06/10 11:09:33;;;;;;;9.70;4.40;;;;;;;;;;5082325;28;20464;-81
2023/06/10 11:12:00;;;;;;;8.37;3.90;;;;;;;;;;5077852;28;20475;-81
2023/06/10 11:14:29;;;;;;;16.77;4.80;;;;;;;;;;5087821;28;20450;-82
2023/06/10 11:16:57;;;;;;;6.97;3.50;;;;;;;;;;5083513;28;20459;-81
2023/06/10 11:19:34;;;;;;;7.70;3.20;;;;;;;;;;5085330;28;20485;-80
2023/06/10 11:22:02;;;;;;;9.43;3.70;;;;;;;;;;5079910;28;20467;-83
2023/06/10 11:24:29;;;;;;;6.33;3.60;;;;;;;;;;5084083;28;20812;-80
2023/06/10 11:26:55;;;;;;;5.60;3.97;;;;;;;;;;5084601;28;20463;-79
2023/06/10 11:29:22;;;;;;;7.13;3.77;;;;;;;;;;5099653;28;20442;-81
2023/06/10 11:31:51;;;;;;;8.27;4.10;;;;;;;;;;5090761;28;20797;-83
2023/06/10 11:34:26;;;;;;;7.17;3.63;;;;;;;;;;5095202;28;20446;-78
2023/06/10 11:36:53;;;;;;;9.00;4.60;;;;;;;;;;5090578;28;20472;-81
2023/06/10 11:39:23;;;;;;;7.73;3.80;;;;;;;;;;5087399;28;20487;-82
2023/06/10 11:41:49;;;;;;;5.43;3.63;;;;;;;;;;5079122;28;20546;-83
2023/06/10 11:44:16;;;;;;;6.43;3.50;;;;;;;;;;5092361;28;20471;-81
2023/06/10 11:46:43;;;;;;;3.50;2.97;;;;;;;;;;5083058;28;20455;-80
2023/06/10 11:49:09;;;;;;;4.50;3.57;;;;;;;;;;5086085;28;20454;-82
2023/06/10 11:51:36;;;;;;;8.80;3.37;;;;;;;;;;5087638;28;20451;-82
2023/06/10 11:54:03;;;;;;;4.80;3.70;;;;;;;;;;5092691;28;20506;-82
2023/06/10 11:56:31;;;;;;;4.80;3.10;;;;;;;;;;5082994;28;20944;-79
2023/06/10 11:58:58;;;;;;;5.40;3.20;;;;;;;;;;5087269;28;20578;-81
2023/06/10 12:01:25;;;;;;;4.23;2.90;;;;;;;;;;5090699;28;20449;-81
2023/06/10 12:03:58;;;;;;;4.30;2.77;;;;;;;;;;5082889;28;20469;-82
2023/06/10 12:06:25;;;;;;;5.50;2.60;;;;;;;;;;5086453;28;20450;-79
2023/06/10 12:08:51;;;;;;;4.47;2.83;;;;;;;;;;5086232;28;20477;-82
2023/06/10 12:11:19;;;;;;;4.83;3.63;;;;;;;;;;5080257;28;20469;-82
2023/06/10 12:13:50;;;;;;;5.80;2.93;;;;;;;;;;5081343;28;20438;-80
2023/06/10 12:16:17;;;;;;;4.83;3.20;;;;;;;;;;5083116;28;20466;-81
2023/06/10 12:18:44;;;;;;;5.67;2.80;;;;;;;;;;5092847;28;20475;-81
2023/06/10 12:21:17;;;;;;;5.60;3.17;;;;;;;;;;5090794;28;20462;-83
2023/06/10 12:23:58;;;;;;;5.03;3.03;;;;;;;;;;5086446;28;20516;-80
2023/06/10 12:26:35;;;;;;;4.47;2.60;;;;;;;;;;5080012;28;20447;-81
2023/06/10 12:29:12;;;;;;;4.13;3.17;;;;;;;;;;5086282;28;20980;-80
2023/06/10 12:31:52;;;;;;;6.53;3.30;;;;;;;;;;5070459;28;20451;-81
2023/06/10 12:34:19;;;;;;;5.20;2.93;;;;;;;;;;5076020;28;20823;-82
2023/06/10 12:36:48;;;;;;;3.97;2.60;;;;;;;;;;5089403;28;20463;-81
2023/06/10 12:39:14;;;;;;;3.63;2.43;;;;;;;;;;5089392;28;20481;-82
2023/06/10 12:41:41;;;;;;;7.20;3.87;;;;;;;;;;5081826;28;20463;-81
2023/06/10 12:44:09;;;;;;;4.33;3.17;;;;;;;;;;5083693;28;20443;-82
2023/06/10 12:46:37;;;;;;;6.63;2.73;;;;;;;;;;5071747;28;20597;-81
2023/06/10 12:49:03;;;;;;;3.67;3.07;;;;;;;;;;5088503;28;20832;-79
2023/06/10 12:51:29;;;;;;;2.90;2.60;;;;;;;;;;5085773;28;20459;-79
2023/06/10 12:53:56;;;;;;;6.70;3.30;;;;;;;;;;5084199;28;20439;-81
2023/06/10 12:56:23;;;;;;;6.83;3.03;;;;;;;;;;5086467;28;20493;-80
2023/06/10 12:58:50;;;;;;;3.73;2.63;;;;;;;;;;5089259;28;20494;-82
2023/06/10 13:01:17;;;;;;;3.90;3.17;;;;;;;;;;5079241;28;20455;-82
2023/06/10 13:03:44;;;;;;;4.43;3.00;;;;;;;;;;5079949;28;20465;-80
2023/06/10 13:06:10;;;;;;;5.80;3.20;;;;;;;;;;5075567;28;20458;-80
2023/06/10 13:08:36;;;;;;;5.37;3.27;;;;;;;;;;5074742;28;20497;-80
2023/06/10 13:11:03;;;;;;;5.07;3.10;;;;;;;;;;5079511;28;20462;-80
2023/06/10 13:13:29;;;;;;;3.03;2.73;;;;;;;;;;5076100;28;20478;-80
2023/06/10 13:15:56;;;;;;;4.53;2.87;;;;;;;;;;5076588;28;20458;-80
2023/06/10 13:18:25;;;;;;;5.70;3.73;;;;;;;;;;5076788;28;20487;-80
2023/06/10 13:20:52;;;;;;;3.80;3.10;;;;;;;;;;5085017;28;20435;-80
2023/06/10 13:23:18;;;;;;;5.50;3.00;;;;;;;;;;5082791;28;20469;-80
2023/06/10 13:25:45;;;;;;;4.90;3.33;;;;;;;;;;5074548;28;20450;-79
2023/06/10 13:28:12;;;;;;;3.90;3.30;;;;;;;;;;5081813;28;20482;-80
2023/06/10 13:30:40;;;;;;;6.00;3.70;;;;;;;;;;5079147;28;20936;-80
2023/06/10 13:33:07;;;;;;;5.57;3.00;;;;;;;;;;5080108;28;20552;-80
2023/06/10 13:35:34;;;;;;;3.90;3.00;;;;;;;;;;5087478;28;20462;-80
2023/06/10 13:38:02;;;;;;;5.90;4.20;;;;;;;;;;5084339;28;20479;-80
2023/06/10 13:40:28;;;;;;;6.60;3.00;;;;;;;;;;5082176;28;20486;-80
2023/06/10 13:42:55;;;;;;;6.03;3.77;;;;;;;;;;5080471;28;20470;-80
2023/06/10 13:45:21;;;;;;;7.47;3.60;;;;;;;;;;5081771;28;20465;-80
2023/06/10 13:47:47;;;;;;;3.70;3.13;;;;;;;;;;5078515;28;20475;-80
2023/06/10 13:50:14;;;;;;;7.53;4.00;;;;;;;;;;5079235;28;20452;-80
2023/06/10 13:52:42;;;;;;;3.90;3.00;;;;;;;;;;5078908;28;20847;-80
2023/06/10 13:55:08;;;;;;;5.03;2.93;;;;;;;;;;5077706;28;20525;-80
2023/06/10 13:57:35;;;;;;;4.97;3.83;;;;;;;;;;5084677;28;20470;-80
2023/06/10 14:00:02;;;;;;;5.90;3.63;;;;;;;;;;5079001;28;21004;-80
2023/06/10 14:02:28;;;;;;;18.00;3.93;;;;;;;;;;5080110;28;20983;-80
2023/06/10 14:04:55;;;;;;;4.37;3.47;;;;;;;;;;5084697;28;20957;-80
2023/06/10 14:07:21;;;;;;;5.20;3.87;;;;;;;;;;5082321;28;20499;-80
2023/06/10 14:09:49;;;;;;;8.00;5.00;;;;;;;;;;5084772;28;20451;-80
2023/06/10 14:12:15;;;;;;;5.90;3.50;;;;;;;;;;5076574;28;20940;-80
2023/06/10 14:14:42;;;;;;;7.43;4.20;;;;;;;;;;5079313;28;20450;-80
2023/06/10 14:17:08;;;;;;;5.23;4.00;;;;;;;;;;5084221;28;20474;-80
2023/06/10 14:19:34;;;;;;;5.53;4.40;;;;;;;;;;5070134;28;20696;-80
2023/06/10 14:22:01;;;;;;;5.90;4.10;;;;;;;;;;5073652;28;20471;-80
2023/06/10 14:24:27;;;;;;;5.00;4.20;;;;;;;;;;5075342;28;20447;-80
2023/06/10 14:26:58;;;;;;;6.47;4.60;;;;;;;;;;5077479;28;20475;-80
2023/06/10 14:29:27;;;;;;;5.60;3.87;;;;;;;;;;5081743;28;20447;-80
2023/06/10 14:31:53;;;;;;;8.00;4.43;;;;;;;;;;5084279;28;20466;-80
2023/06/10 14:34:19;;;;;;;7.03;4.33;;;;;;;;;;5076861;28;20459;-80
2023/06/10 14:36:45;;;;;;;5.07;3.97;;;;;;;;;;5075807;28;20471;-80